createdAt,value
2022-11-17T00:00:34.350Z,30.55
2022-11-17T00:03:01.076Z,32.22
2022-11-17T00:05:27.810Z,30.77
2022-11-17T00:07:54.645Z,30.00
2022-11-17T00:10:21.416Z,30.67
2022-11-17T00:13:06.626Z,30.73
2022-11-17T00:15:33.446Z,31.10
2022-11-17T00:18:18.907Z,30.90
2022-11-17T00:21:04.371Z,29.40
2022-11-17T00:23:47.185Z,29.75
2022-11-17T00:26:16.018Z,29.98
2022-11-17T00:28:42.845Z,30.52
2022-11-17T00:31:30.661Z,31.40
2022-11-17T00:34:06.311Z,27.90
2022-11-17T00:36:44.747Z,29.92
2022-11-17T00:39:13.055Z,30.38
2022-11-17T00:41:40.038Z,29.88
2022-11-17T00:44:07.335Z,30.67
2022-11-17T00:46:35.778Z,30.17
2022-11-17T00:49:03.031Z,29.08
2022-11-17T00:51:29.982Z,30.02
2022-11-17T00:53:56.825Z,29.77
2022-11-17T00:56:23.699Z,30.25
2022-11-17T00:58:50.493Z,30.80
2022-11-17T01:01:17.789Z,30.25
2022-11-17T01:03:44.881Z,29.70
2022-11-17T01:06:20.151Z,30.20
2022-11-17T01:08:47.443Z,28.92
2022-11-17T01:11:16.574Z,27.83
2022-11-17T01:13:45.252Z,29.50
2022-11-17T01:16:18.375Z,28.60
2022-11-17T01:18:46.774Z,28.73
2022-11-17T01:21:16.454Z,28.67
2022-11-17T01:23:44.725Z,30.38
2022-11-17T01:26:14.834Z,28.70
2022-11-17T01:28:42.410Z,28.75
2022-11-17T01:31:15.092Z,31.00
2022-11-17T01:33:41.959Z,31.25
2022-11-17T01:36:18.145Z,30.85
2022-11-17T01:38:45.868Z,30.25
2022-11-17T01:41:28.647Z,29.55
2022-11-17T01:43:59.475Z,30.08
2022-11-17T01:46:32.037Z,30.73
2022-11-17T01:49:25.446Z,31.63
2022-11-17T01:52:01.910Z,30.70
2022-11-17T01:54:30.085Z,29.88
2022-11-17T01:57:05.354Z,31.20
2022-11-17T01:59:48.999Z,31.33
2022-11-17T02:02:15.857Z,30.65
2022-11-17T02:04:53.444Z,32.53
2022-11-17T02:07:27.183Z,32.83
2022-11-17T02:09:55.717Z,31.58
2022-11-17T02:12:25.670Z,33.03
2022-11-17T02:14:54.182Z,32.65
2022-11-17T02:17:23.303Z,33.88
2022-11-17T02:20:03.568Z,33.95
2022-11-17T02:22:48.758Z,34.50
2022-11-17T02:25:40.453Z,36.08
2022-11-17T02:28:09.990Z,35.65
2022-11-17T02:31:03.074Z,33.95
2022-11-17T02:33:48.352Z,33.33
2022-11-17T02:36:39.772Z,33.50
2022-11-17T02:39:21.624Z,33.55
2022-11-17T02:42:49.290Z,33.05
2022-11-17T02:45:24.745Z,34.10
2022-11-17T02:47:54.645Z,33.75
2022-11-17T02:50:28.041Z,33.15
2022-11-17T02:52:55.719Z,33.33
2022-11-17T02:55:22.451Z,31.33
2022-11-17T02:57:49.864Z,31.27
2022-11-17T03:00:20.748Z,31.27
2022-11-17T03:03:10.237Z,31.30
2022-11-17T03:06:10.276Z,30.33
2022-11-17T03:08:50.661Z,29.75
2022-11-17T03:11:23.011Z,30.40
2022-11-17T03:13:51.965Z,29.17
2022-11-17T03:16:35.737Z,29.90
2022-11-17T03:19:19.514Z,32.70
2022-11-17T03:22:13.077Z,31.08
2022-11-17T03:24:45.467Z,32.03
2022-11-17T03:27:25.352Z,28.02
2022-11-17T03:29:57.562Z,26.58
2022-11-17T03:32:27.107Z,27.40
2022-11-17T03:35:01.451Z,27.88
2022-11-17T03:37:32.888Z,30.38
2022-11-17T03:40:08.737Z,29.02
2022-11-17T03:42:39.165Z,28.20
2022-11-17T03:45:19.513Z,27.15
2022-11-17T03:47:49.761Z,28.42
2022-11-17T03:50:22.491Z,31.42
2022-11-17T03:52:49.663Z,31.60
2022-11-17T03:55:17.083Z,29.25
2022-11-17T03:58:03.341Z,30.10
2022-11-17T04:00:30.685Z,28.70
2022-11-17T04:03:00.878Z,31.60
2022-11-17T04:05:28.076Z,29.75
2022-11-17T04:07:54.821Z,31.38
2022-11-17T04:10:25.139Z,31.20
2022-11-17T04:13:11.468Z,30.95
2022-11-17T04:15:56.600Z,34.13
2022-11-17T04:18:23.764Z,32.13
2022-11-17T04:20:52.790Z,34.30
2022-11-17T04:23:20.176Z,34.33
2022-11-17T04:26:10.651Z,36.47
2022-11-17T04:28:43.790Z,34.05
2022-11-17T04:31:25.949Z,32.58
2022-11-17T04:34:01.309Z,31.92
2022-11-17T04:36:34.590Z,30.92
2022-11-17T04:39:01.808Z,32.63
2022-11-17T04:41:48.261Z,31.15
2022-11-17T04:44:17.499Z,31.05
2022-11-17T04:46:48.645Z,29.17
2022-11-17T04:49:16.939Z,31.83
2022-11-17T04:51:43.787Z,31.95
2022-11-17T04:54:12.544Z,31.98
2022-11-17T04:56:39.604Z,29.90
2022-11-17T04:59:06.534Z,31.10
2022-11-17T05:01:33.694Z,30.00
2022-11-17T05:04:05.634Z,31.80
2022-11-17T05:06:33.800Z,30.15
2022-11-17T05:09:09.622Z,30.60
2022-11-17T05:11:55.317Z,31.05
2022-11-17T05:14:24.236Z,29.65
2022-11-17T05:17:10.052Z,30.58
2022-11-17T05:19:46.471Z,31.30
2022-11-17T05:22:41.518Z,31.13
2022-11-17T05:25:09.403Z,32.47
2022-11-17T05:27:36.826Z,32.47
2022-11-17T05:30:06.265Z,29.67
2022-11-17T05:32:33.072Z,29.33
2022-11-17T05:34:59.835Z,29.00
2022-11-17T05:37:26.655Z,29.17
2022-11-17T05:39:53.473Z,29.83
2022-11-17T05:42:20.326Z,30.85
2022-11-17T05:44:48.573Z,31.02
2022-11-17T05:47:15.514Z,28.45
2022-11-17T05:49:42.251Z,29.73
2022-11-17T05:52:09.051Z,30.05
2022-11-17T05:54:35.749Z,28.00
2022-11-17T05:57:11.959Z,28.80
2022-11-17T05:59:44.933Z,29.13
2022-11-17T06:02:19.026Z,28.38
2022-11-17T06:04:48.558Z,28.58
2022-11-17T06:07:17.776Z,29.58
2022-11-17T06:09:45.524Z,30.08
2022-11-17T06:12:12.324Z,28.75
2022-11-17T06:14:39.811Z,29.15
2022-11-17T06:17:22.401Z,28.45
2022-11-17T06:19:55.773Z,29.10
2022-11-17T06:22:24.177Z,28.17
2022-11-17T06:24:51.021Z,29.63
2022-11-17T06:27:17.990Z,37.05
2022-11-17T06:29:47.003Z,31.02
2022-11-17T06:32:15.597Z,30.08
2022-11-17T06:34:44.332Z,31.08
2022-11-17T06:37:11.935Z,28.70
2022-11-17T06:39:38.735Z,29.13
2022-11-17T06:42:05.621Z,28.63
2022-11-17T06:44:32.382Z,27.73
2022-11-17T06:46:59.158Z,27.83
2022-11-17T06:49:25.897Z,26.30
2022-11-17T06:51:52.651Z,27.85
2022-11-17T06:54:19.527Z,28.27
2022-11-17T06:56:47.022Z,25.92
2022-11-17T06:59:16.114Z,26.48
2022-11-17T07:01:43.597Z,27.83
2022-11-17T07:04:10.556Z,27.65
2022-11-17T07:06:37.912Z,28.20
2022-11-17T07:09:05.643Z,28.88
2022-11-17T07:11:35.894Z,29.45
2022-11-17T07:14:02.866Z,27.83
2022-11-17T07:16:30.871Z,28.05
2022-11-17T07:18:59.318Z,28.70
2022-11-17T07:21:26.273Z,26.63
2022-11-17T07:23:53.123Z,25.67
2022-11-17T07:26:20.001Z,25.63
2022-11-17T07:28:46.857Z,26.77
2022-11-17T07:31:13.751Z,26.70
2022-11-17T07:33:40.649Z,25.95
2022-11-17T07:36:10.337Z,29.63
2022-11-17T07:38:40.533Z,29.42
2022-11-17T07:41:09.417Z,28.05
2022-11-17T07:43:37.081Z,28.58
2022-11-17T07:46:14.795Z,28.08
2022-11-17T07:48:44.312Z,31.15
2022-11-17T07:51:12.351Z,28.40
2022-11-17T07:53:39.177Z,27.15
2022-11-17T07:56:08.244Z,28.25
2022-11-17T07:58:35.541Z,25.73
2022-11-17T08:01:11.727Z,25.85
2022-11-17T08:03:38.763Z,25.45
2022-11-17T08:06:07.148Z,25.73
2022-11-17T08:08:34.894Z,26.17
2022-11-17T08:11:10.701Z,25.42
2022-11-17T08:13:38.774Z,25.60
2022-11-17T08:16:06.759Z,25.30
2022-11-17T08:18:34.627Z,24.65
2022-11-17T08:21:13.888Z,26.95
2022-11-17T08:23:42.071Z,26.27
2022-11-17T08:26:11.034Z,25.45
2022-11-17T08:28:38.688Z,23.98
2022-11-17T08:31:07.814Z,24.73
2022-11-17T08:33:34.901Z,25.27
2022-11-17T08:36:03.947Z,24.52
2022-11-17T08:38:31.331Z,24.10
2022-11-17T08:41:08.639Z,24.95
2022-11-17T08:43:36.060Z,24.52
2022-11-17T08:46:03.241Z,24.75
2022-11-17T08:48:31.748Z,23.73
2022-11-17T08:51:04.185Z,24.10
2022-11-17T08:53:31.104Z,26.92
2022-11-17T08:55:58.302Z,25.92
2022-11-17T08:58:25.291Z,24.52
2022-11-17T09:00:52.220Z,23.25
2022-11-17T09:03:19.097Z,24.77
2022-11-17T09:05:49.783Z,22.27
2022-11-17T09:11:09.756Z,21.15
2022-11-17T09:13:37.752Z,44.15
2022-11-17T09:16:07.155Z,41.60
2022-11-17T09:18:35.056Z,22.88
2022-11-17T09:21:04.333Z,22.70
2022-11-17T09:23:31.772Z,22.08
2022-11-17T09:25:59.206Z,22.77
2022-11-17T09:28:26.425Z,21.80
2022-11-17T09:30:53.504Z,22.30
2022-11-17T09:33:20.450Z,22.95
2022-11-17T09:35:47.300Z,23.17
2022-11-17T09:38:14.052Z,23.00
2022-11-17T09:40:41.970Z,23.25
2022-11-17T09:43:28.664Z,22.67
2022-11-17T09:46:07.551Z,22.25
2022-11-17T09:49:13.272Z,22.50
2022-11-17T09:51:44.811Z,22.83
2022-11-17T09:54:41.006Z,22.35
2022-11-17T09:57:22.538Z,21.50
2022-11-17T09:59:59.492Z,21.75
2022-11-17T10:02:26.397Z,20.65
2022-11-17T10:04:53.645Z,21.80
2022-11-17T10:07:21.106Z,21.60
2022-11-17T10:09:51.815Z,22.73
2022-11-17T10:12:22.161Z,21.10
2022-11-17T10:14:49.808Z,21.25
2022-11-17T10:17:17.090Z,20.85
2022-11-17T10:19:45.415Z,22.92
2022-11-17T10:22:20.934Z,21.98
2022-11-17T10:24:55.349Z,21.88
2022-11-17T10:27:35.079Z,21.02
2022-11-17T10:30:19.799Z,21.88
2022-11-17T10:32:50.939Z,22.20
2022-11-17T10:35:26.313Z,22.90
2022-11-17T10:37:58.654Z,20.77
2022-11-17T10:40:31.389Z,22.25
2022-11-17T10:43:14.046Z,20.25
2022-11-17T10:45:49.091Z,20.55
2022-11-17T10:48:35.659Z,21.77
2022-11-17T10:51:27.220Z,21.20
2022-11-17T10:54:16.807Z,22.67
2022-11-17T10:56:48.048Z,21.70
2022-11-17T10:59:28.288Z,21.45
2022-11-17T11:01:55.288Z,20.85
2022-11-17T11:04:42.060Z,20.92
2022-11-17T11:07:23.363Z,23.60
2022-11-17T11:09:50.216Z,22.20
2022-11-17T11:12:24.981Z,20.73
2022-11-17T11:14:56.174Z,20.25
2022-11-17T11:17:23.032Z,23.02
2022-11-17T11:19:53.025Z,20.70
2022-11-17T11:22:33.328Z,19.58
2022-11-17T11:25:37.812Z,20.65
2022-11-17T11:28:10.399Z,20.23
2022-11-17T11:31:05.030Z,20.88
2022-11-17T11:33:37.891Z,19.55
2022-11-17T11:36:15.354Z,20.20
2022-11-17T11:39:00.442Z,20.60
2022-11-17T11:42:07.485Z,20.88
2022-11-17T11:44:34.632Z,21.35
2022-11-17T11:47:19.687Z,20.25
2022-11-17T11:49:55.696Z,21.77
2022-11-17T11:52:26.904Z,21.83
2022-11-17T11:55:05.549Z,21.30
2022-11-17T11:57:47.528Z,21.63
2022-11-17T12:02:49.792Z,21.88
2022-11-17T12:05:55.528Z,20.38
2022-11-17T12:08:48.023Z,21.77
2022-11-17T12:11:35.132Z,20.38
2022-11-17T12:14:04.963Z,20.33
2022-11-17T12:16:34.811Z,20.58
2022-11-17T12:19:01.850Z,19.10
2022-11-17T12:21:29.726Z,19.33
2022-11-17T12:24:25.192Z,20.80
2022-11-17T12:26:52.031Z,20.77
2022-11-17T12:29:21.603Z,20.05
2022-11-17T12:31:50.563Z,21.58
2022-11-17T12:34:23.447Z,19.42
2022-11-17T12:37:22.078Z,20.02
2022-11-17T12:40:05.433Z,20.85
2022-11-17T12:42:33.586Z,19.63
2022-11-17T12:45:08.856Z,19.27
2022-11-17T12:47:44.952Z,18.65
2022-11-17T12:50:18.551Z,18.35
2022-11-17T12:53:17.228Z,17.42
2022-11-17T12:56:02.089Z,17.30
2022-11-17T12:58:35.125Z,18.10
2022-11-17T13:01:44.873Z,17.73
2022-11-17T13:04:17.070Z,17.20
2022-11-17T13:07:02.247Z,17.88
2022-11-17T13:09:35.045Z,16.40
2022-11-17T13:12:07.541Z,17.60
2022-11-17T13:14:36.237Z,15.98
2022-11-17T13:17:04.097Z,19.05
2022-11-17T13:19:39.172Z,17.27
2022-11-17T13:22:21.463Z,17.13
2022-11-17T13:24:50.213Z,16.45
2022-11-17T13:27:26.331Z,15.98
2022-11-17T13:30:22.299Z,16.27
2022-11-17T13:32:50.468Z,15.68
2022-11-17T13:35:23.259Z,15.13
2022-11-17T13:38:19.968Z,15.70
2022-11-17T13:40:49.973Z,15.50
2022-11-17T13:43:20.497Z,13.35
2022-11-17T13:45:48.698Z,13.93
2022-11-17T13:48:35.055Z,14.85
2022-11-17T13:51:23.980Z,14.98
2022-11-17T13:53:54.843Z,14.68
2022-11-17T13:56:34.982Z,15.05
2022-11-17T13:59:06.464Z,13.75
2022-11-17T14:01:34.010Z,14.43
2022-11-17T14:04:33.463Z,15.27
2022-11-17T14:07:02.670Z,15.45
2022-11-17T14:09:32.172Z,14.23
2022-11-17T14:11:59.331Z,13.40
2022-11-17T14:14:40.107Z,14.10
2022-11-17T14:17:22.393Z,14.68
2022-11-17T14:19:49.273Z,14.07
2022-11-17T14:22:22.396Z,13.38
2022-11-17T14:24:51.163Z,13.82
2022-11-17T14:27:27.095Z,13.25
2022-11-17T14:29:54.200Z,14.15
2022-11-17T14:32:21.390Z,14.85
2022-11-17T14:34:48.212Z,15.23
2022-11-17T14:37:15.412Z,12.52
2022-11-17T14:39:42.214Z,13.13
2022-11-17T14:42:13.700Z,13.10
2022-11-17T14:44:40.561Z,14.75
2022-11-17T14:47:07.449Z,13.70
2022-11-17T14:49:34.382Z,13.93
2022-11-17T14:52:02.523Z,13.13
2022-11-17T14:54:29.359Z,14.32
2022-11-17T14:56:56.210Z,14.60
2022-11-17T14:59:22.975Z,13.02
2022-11-17T15:01:50.141Z,15.68
2022-11-17T15:07:03.943Z,15.98
2022-11-17T15:09:30.864Z,16.05
2022-11-17T15:11:57.690Z,17.33
2022-11-17T15:14:24.530Z,17.23
2022-11-17T15:16:51.412Z,17.42
2022-11-17T15:19:18.257Z,18.75
2022-11-17T15:21:45.041Z,18.58
2022-11-17T15:24:11.819Z,18.10
2022-11-17T15:26:38.836Z,19.27
2022-11-17T15:29:05.759Z,19.35
2022-11-17T15:31:32.543Z,19.33
2022-11-17T15:34:01.140Z,20.33
2022-11-17T15:36:27.983Z,20.08
2022-11-17T15:38:54.884Z,19.35
2022-11-17T15:41:21.836Z,18.17
2022-11-17T15:43:48.698Z,19.42
2022-11-17T15:46:17.608Z,18.85
2022-11-17T15:48:46.938Z,18.05
2022-11-17T15:51:16.109Z,18.83
2022-11-17T15:53:44.629Z,18.08
2022-11-17T15:56:14.673Z,17.92
2022-11-17T15:58:43.189Z,19.20
2022-11-17T16:01:12.454Z,18.92
2022-11-17T16:03:40.857Z,19.40
2022-11-17T16:06:08.915Z,18.25
2022-11-17T16:08:36.406Z,19.17
2022-11-17T16:11:03.561Z,18.42
2022-11-17T16:13:31.820Z,18.38
2022-11-17T16:15:58.802Z,17.63
2022-11-17T16:18:25.727Z,17.23
2022-11-17T16:20:52.704Z,18.67
2022-11-17T16:23:20.243Z,17.45
2022-11-17T16:25:48.492Z,17.67
2022-11-17T16:28:16.862Z,18.02
2022-11-17T16:30:43.941Z,18.15
2022-11-17T16:33:12.621Z,18.77
2022-11-17T16:35:40.597Z,19.23
2022-11-17T16:38:08.438Z,16.67
2022-11-17T16:40:37.682Z,19.08
2022-11-17T16:43:04.480Z,19.00
2022-11-17T16:45:31.523Z,18.65
2022-11-17T16:47:59.359Z,18.45
2022-11-17T16:50:26.237Z,19.45
2022-11-17T16:52:53.113Z,17.90
2022-11-17T16:55:19.908Z,19.05
2022-11-17T16:57:46.688Z,19.30
2022-11-17T17:00:15.143Z,16.67
2022-11-17T17:02:42.051Z,17.13
2022-11-17T17:05:09.541Z,17.88
2022-11-17T17:07:36.501Z,18.65
2022-11-17T17:10:03.630Z,20.83
2022-11-17T17:12:30.467Z,19.83
2022-11-17T17:14:57.352Z,20.02
2022-11-17T17:17:24.417Z,18.83
2022-11-17T17:19:51.405Z,19.58
2022-11-17T17:22:18.249Z,20.48
2022-11-17T17:24:45.121Z,20.27
2022-11-17T17:27:11.918Z,19.98
2022-11-17T17:29:38.692Z,19.98
2022-11-17T17:32:05.614Z,19.35
2022-11-17T17:34:32.417Z,20.92
2022-11-17T17:36:59.276Z,19.90
2022-11-17T17:39:26.125Z,18.35
2022-11-17T17:41:53.096Z,19.02
2022-11-17T17:44:20.101Z,18.25
2022-11-17T17:46:47.411Z,18.85
2022-11-17T17:49:14.963Z,18.95
2022-11-17T17:51:44.380Z,18.77
2022-11-17T17:54:17.339Z,18.15
2022-11-17T17:56:45.006Z,19.92
2022-11-17T17:59:13.572Z,18.98
2022-11-17T18:01:42.277Z,18.08
2022-11-17T18:04:15.346Z,20.42
2022-11-17T18:06:56.623Z,21.27
2022-11-17T18:09:23.557Z,20.02
2022-11-17T18:11:51.273Z,20.63
2022-11-17T18:14:23.942Z,22.45
2022-11-17T18:16:52.186Z,19.27
2022-11-17T18:19:19.425Z,18.80
2022-11-17T18:21:46.550Z,18.77
2022-11-17T18:24:13.996Z,20.42
2022-11-17T18:26:41.372Z,20.10
2022-11-17T18:29:18.673Z,21.25
2022-11-17T18:31:47.380Z,48.08
2022-11-17T18:34:23.137Z,47.03
2022-11-17T18:36:51.635Z,38.55
2022-11-17T18:39:19.110Z,42.42
2022-11-17T18:41:46.493Z,30.05
2022-11-17T18:44:19.560Z,33.10
2022-11-17T18:46:47.188Z,35.15
2022-11-17T18:49:14.438Z,27.88
2022-11-17T18:51:41.635Z,25.42
2022-11-17T18:54:10.924Z,22.63
2022-11-17T18:56:38.408Z,21.92
2022-11-17T18:59:12.673Z,22.90
2022-11-17T19:01:41.291Z,22.90
2022-11-17T19:04:08.705Z,21.25
2022-11-17T19:06:35.718Z,23.38
2022-11-17T19:09:02.579Z,23.48
2022-11-17T19:11:33.731Z,20.45
2022-11-17T19:14:07.825Z,21.55
2022-11-17T19:16:42.651Z,22.08
2022-11-17T19:19:11.035Z,22.38
2022-11-17T19:21:37.848Z,22.38
2022-11-17T19:24:04.967Z,21.63
2022-11-17T19:26:33.716Z,20.35
2022-11-17T19:29:16.083Z,21.38
2022-11-17T19:31:44.817Z,21.25
2022-11-17T19:34:11.869Z,22.20
2022-11-17T19:36:38.764Z,21.52
2022-11-17T19:39:05.834Z,19.58
2022-11-17T19:41:37.544Z,21.15
2022-11-17T19:44:07.117Z,21.02
2022-11-17T19:46:36.326Z,21.05
2022-11-17T19:49:04.454Z,20.90
2022-11-17T19:51:33.457Z,21.63
2022-11-17T19:54:06.221Z,21.70
2022-11-17T19:56:33.152Z,20.63
2022-11-17T19:59:00.127Z,19.50
2022-11-17T20:01:28.664Z,20.58
2022-11-17T20:03:57.276Z,20.48
2022-11-17T20:06:27.429Z,18.83
2022-11-17T20:08:55.498Z,20.58
2022-11-17T20:11:27.230Z,19.10
2022-11-17T20:13:57.176Z,19.67
2022-11-17T20:16:26.417Z,19.60
2022-11-17T20:18:55.666Z,18.58
2022-11-17T20:21:22.949Z,21.42
2022-11-17T20:23:50.151Z,20.48
2022-11-17T20:26:22.866Z,18.23
2022-11-17T20:28:50.527Z,19.02
2022-11-17T20:31:24.191Z,20.35
2022-11-17T20:33:52.266Z,20.52
2022-11-17T20:36:21.117Z,20.85
2022-11-17T20:38:52.034Z,20.17
2022-11-17T20:41:21.034Z,19.50
2022-11-17T20:43:49.525Z,19.35
2022-11-17T20:46:16.884Z,18.50
2022-11-17T20:48:44.364Z,20.45
2022-11-17T20:51:13.548Z,20.23
2022-11-17T20:53:40.754Z,18.73
2022-11-17T20:56:09.321Z,17.85
2022-11-17T20:58:36.604Z,18.55
2022-11-17T21:01:15.305Z,19.00
2022-11-17T21:03:43.052Z,19.40
2022-11-17T21:06:10.390Z,24.27
2022-11-17T21:08:39.738Z,25.13
2022-11-17T21:11:09.823Z,22.08
2022-11-17T21:13:37.370Z,22.65
2022-11-17T21:16:15.117Z,22.60
2022-11-17T21:18:46.912Z,22.63
2022-11-17T21:23:41.798Z,21.95
2022-11-17T21:26:11.041Z,20.75
2022-11-17T21:28:38.525Z,20.58
2022-11-17T21:31:17.023Z,20.77
2022-11-17T21:33:45.071Z,19.85
2022-11-17T21:36:16.956Z,22.42
2022-11-17T21:38:47.351Z,21.30
2022-11-17T21:41:16.655Z,21.13
2022-11-17T21:43:44.641Z,20.25
2022-11-17T21:46:20.402Z,21.65
2022-11-17T21:48:47.675Z,20.73
2022-11-17T21:51:18.311Z,20.35
2022-11-17T21:53:45.599Z,21.42
2022-11-17T21:56:13.014Z,21.00
2022-11-17T21:58:40.164Z,21.98
2022-11-17T22:01:09.461Z,19.85
2022-11-17T22:03:36.905Z,20.83
2022-11-17T22:06:11.112Z,22.85
2022-11-17T22:08:39.808Z,27.35
2022-11-17T22:11:09.027Z,25.10
2022-11-17T22:13:36.302Z,25.27
2022-11-17T22:16:21.175Z,23.83
2022-11-17T22:18:47.975Z,24.25
2022-11-17T22:21:14.813Z,25.02
2022-11-17T22:23:41.996Z,24.20
2022-11-17T22:26:11.120Z,22.65
2022-11-17T22:28:37.942Z,22.23
2022-11-17T22:31:06.700Z,21.58
2022-11-17T22:33:33.548Z,23.92
2022-11-17T22:36:01.112Z,24.08
2022-11-17T22:38:30.136Z,23.77
2022-11-17T22:41:04.680Z,24.65
2022-11-17T22:43:31.528Z,24.35
2022-11-17T22:46:02.522Z,25.20
2022-11-17T22:48:29.409Z,33.38
2022-11-17T22:51:00.297Z,26.75
2022-11-17T22:53:28.135Z,24.73
2022-11-17T22:55:55.115Z,33.22
2022-11-17T22:58:21.919Z,42.85
2022-11-17T23:00:48.778Z,29.13
2022-11-17T23:03:15.699Z,31.70
2022-11-17T23:05:42.494Z,26.20
2022-11-17T23:08:10.020Z,27.92
2022-11-17T23:10:37.469Z,27.90
2022-11-17T23:13:04.314Z,30.13
2022-11-17T23:15:32.466Z,29.65
2022-11-17T23:17:59.536Z,27.27
2022-11-17T23:20:26.391Z,28.55
2022-11-17T23:22:54.791Z,27.58
2022-11-17T23:25:22.051Z,28.05
2022-11-17T23:27:48.845Z,28.60
2022-11-17T23:30:15.956Z,27.92
2022-11-17T23:32:42.848Z,26.13
2022-11-17T23:35:09.669Z,24.67
2022-11-17T23:37:36.494Z,27.30
2022-11-17T23:40:03.400Z,27.45
2022-11-17T23:42:32.691Z,26.58
2022-11-17T23:45:00.249Z,28.35
2022-11-17T23:47:27.063Z,25.95
2022-11-17T23:49:53.878Z,25.95
2022-11-17T23:52:20.683Z,25.55
2022-11-17T23:54:47.440Z,26.38
2022-11-17T23:57:14.267Z,27.33
2022-11-17T23:59:41.060Z,26.40
